sensor_id;sensor_type;location;lat;lon;timestamp;P1;durP1;ratioP1;P2;durP2;ratioP2
13171;SDS011;6651;53.200;10.432;2022-08-19T00:00:50;9.77;;;8.73;;
13171;SDS011;6651;53.200;10.432;2022-08-19T00:03:15;9.63;;;8.63;;
13171;SDS011;6651;53.200;10.432;2022-08-19T00:05:42;10.38;;;9.07;;
13171;SDS011;6651;53.200;10.432;2022-08-19T00:08:07;10.10;;;9.05;;
13171;SDS011;6651;53.200;10.432;2022-08-19T00:10:33;10.73;;;8.50;;
13171;SDS011;6651;53.200;10.432;2022-08-19T00:12:59;12.10;;;9.40;;
13171;SDS011;6651;53.200;10.432;2022-08-19T00:15:24;10.60;;;9.38;;
13171;SDS011;6651;53.200;10.432;2022-08-19T00:17:50;12.15;;;8.55;;
13171;SDS011;6651;53.200;10.432;2022-08-19T00:20:18;9.98;;;7.82;;
13171;SDS011;6651;53.200;10.432;2022-08-19T00:22:45;12.32;;;8.88;;
13171;SDS011;6651;53.200;10.432;2022-08-19T00:25:12;10.52;;;8.52;;
13171;SDS011;6651;53.200;10.432;2022-08-19T00:27:38;12.23;;;9.38;;
13171;SDS011;6651;53.200;10.432;2022-08-19T00:30:05;10.82;;;8.98;;
13171;SDS011;6651;53.200;10.432;2022-08-19T00:32:32;11.07;;;7.90;;
13171;SDS011;6651;53.200;10.432;2022-08-19T00:34:59;10.63;;;8.70;;
13171;SDS011;6651;53.200;10.432;2022-08-19T00:37:25;12.60;;;9.77;;
13171;SDS011;6651;53.200;10.432;2022-08-19T00:39:51;11.85;;;8.25;;
13171;SDS011;6651;53.200;10.432;2022-08-19T00:42:18;12.45;;;8.52;;
13171;SDS011;6651;53.200;10.432;2022-08-19T00:44:44;11.48;;;8.93;;
13171;SDS011;6651;53.200;10.432;2022-08-19T00:47:10;12.77;;;8.88;;
13171;SDS011;6651;53.200;10.432;2022-08-19T00:49:40;13.70;;;9.23;;
13171;SDS011;6651;53.200;10.432;2022-08-19T00:52:14;11.80;;;8.88;;
13171;SDS011;6651;53.200;10.432;2022-08-19T00:54:43;11.13;;;8.38;;
13171;SDS011;6651;53.200;10.432;2022-08-19T00:57:10;9.95;;;8.95;;
13171;SDS011;6651;53.200;10.432;2022-08-19T00:59:40;11.50;;;8.80;;
13171;SDS011;6651;53.200;10.432;2022-08-19T01:02:08;10.98;;;9.65;;
13171;SDS011;6651;53.200;10.432;2022-08-19T01:04:34;10.20;;;8.65;;
13171;SDS011;6651;53.200;10.432;2022-08-19T01:07:00;11.50;;;9.30;;
13171;SDS011;6651;53.200;10.432;2022-08-19T01:09:26;10.15;;;8.98;;
13171;SDS011;6651;53.200;10.432;2022-08-19T01:11:53;9.68;;;8.68;;
13171;SDS011;6651;53.200;10.432;2022-08-19T01:14:19;9.45;;;8.13;;
13171;SDS011;6651;53.200;10.432;2022-08-19T01:16:45;9.35;;;8.20;;
13171;SDS011;6651;53.200;10.432;2022-08-19T01:19:26;11.15;;;8.40;;
13171;SDS011;6651;53.200;10.432;2022-08-19T01:21:55;9.63;;;8.63;;
13171;SDS011;6651;53.200;10.432;2022-08-19T01:24:26;9.50;;;7.22;;
13171;SDS011;6651;53.200;10.432;2022-08-19T01:26:52;9.57;;;8.10;;
13171;SDS011;6651;53.200;10.432;2022-08-19T01:29:18;9.63;;;7.95;;
13171;SDS011;6651;53.200;10.432;2022-08-19T01:31:43;8.77;;;7.90;;
13171;SDS011;6651;53.200;10.432;2022-08-19T01:34:09;10.18;;;8.32;;
13171;SDS011;6651;53.200;10.432;2022-08-19T01:36:37;9.63;;;7.40;;
13171;SDS011;6651;53.200;10.432;2022-08-19T01:39:09;9.40;;;7.55;;
13171;SDS011;6651;53.200;10.432;2022-08-19T01:41:36;9.50;;;7.78;;
13171;SDS011;6651;53.200;10.432;2022-08-19T01:44:03;11.70;;;9.10;;
13171;SDS011;6651;53.200;10.432;2022-08-19T01:46:31;10.63;;;8.43;;
13171;SDS011;6651;53.200;10.432;2022-08-19T01:48:57;10.48;;;8.88;;
13171;SDS011;6651;53.200;10.432;2022-08-19T01:51:22;10.52;;;7.93;;
13171;SDS011;6651;53.200;10.432;2022-08-19T01:53:49;10.15;;;8.73;;
13171;SDS011;6651;53.200;10.432;2022-08-19T01:56:16;10.55;;;8.18;;
13171;SDS011;6651;53.200;10.432;2022-08-19T01:58:47;11.68;;;8.63;;
13171;SDS011;6651;53.200;10.432;2022-08-19T02:01:17;10.07;;;8.10;;
13171;SDS011;6651;53.200;10.432;2022-08-19T02:03:43;9.70;;;8.50;;
13171;SDS011;6651;53.200;10.432;2022-08-19T02:06:09;10.57;;;8.75;;
13171;SDS011;6651;53.200;10.432;2022-08-19T02:08:35;9.60;;;8.38;;
13171;SDS011;6651;53.200;10.432;2022-08-19T02:11:02;9.63;;;8.50;;
13171;SDS011;6651;53.200;10.432;2022-08-19T02:13:28;10.85;;;9.10;;
13171;SDS011;6651;53.200;10.432;2022-08-19T02:15:54;11.63;;;9.27;;
13171;SDS011;6651;53.200;10.432;2022-08-19T02:18:20;10.25;;;8.50;;
13171;SDS011;6651;53.200;10.432;2022-08-19T02:20:46;10.30;;;9.13;;
13171;SDS011;6651;53.200;10.432;2022-08-19T02:23:15;10.95;;;8.77;;
13171;SDS011;6651;53.200;10.432;2022-08-19T02:25:42;10.57;;;9.25;;
13171;SDS011;6651;53.200;10.432;2022-08-19T02:28:10;10.57;;;9.20;;
13171;SDS011;6651;53.200;10.432;2022-08-19T02:30:37;11.70;;;8.75;;
13171;SDS011;6651;53.200;10.432;2022-08-19T02:33:03;11.10;;;8.75;;
13171;SDS011;6651;53.200;10.432;2022-08-19T02:35:30;10.88;;;9.77;;
13171;SDS011;6651;53.200;10.432;2022-08-19T02:37:59;10.43;;;8.77;;
13171;SDS011;6651;53.200;10.432;2022-08-19T02:40:50;11.73;;;10.00;;
13171;SDS011;6651;53.200;10.432;2022-08-19T02:43:18;11.57;;;9.07;;
13171;SDS011;6651;53.200;10.432;2022-08-19T02:45:47;9.48;;;8.55;;
13171;SDS011;6651;53.200;10.432;2022-08-19T02:48:15;9.93;;;8.70;;
13171;SDS011;6651;53.200;10.432;2022-08-19T02:50:42;9.32;;;8.13;;
13171;SDS011;6651;53.200;10.432;2022-08-19T02:53:08;9.57;;;8.60;;
13171;SDS011;6651;53.200;10.432;2022-08-19T02:55:34;8.90;;;7.68;;
13171;SDS011;6651;53.200;10.432;2022-08-19T02:58:00;9.20;;;8.10;;
13171;SDS011;6651;53.200;10.432;2022-08-19T03:00:26;10.23;;;9.10;;
13171;SDS011;6651;53.200;10.432;2022-08-19T03:02:52;8.57;;;7.72;;
13171;SDS011;6651;53.200;10.432;2022-08-19T03:05:18;10.60;;;9.07;;
13171;SDS011;6651;53.200;10.432;2022-08-19T03:07:44;11.40;;;8.57;;
13171;SDS011;6651;53.200;10.432;2022-08-19T03:10:12;8.88;;;7.97;;
13171;SDS011;6651;53.200;10.432;2022-08-19T03:12:38;12.38;;;9.80;;
13171;SDS011;6651;53.200;10.432;2022-08-19T03:15:07;11.25;;;9.10;;
13171;SDS011;6651;53.200;10.432;2022-08-19T03:17:34;13.65;;;9.68;;
13171;SDS011;6651;53.200;10.432;2022-08-19T03:20:00;10.27;;;8.88;;
13171;SDS011;6651;53.200;10.432;2022-08-19T03:22:26;13.80;;;10.00;;
13171;SDS011;6651;53.200;10.432;2022-08-19T03:24:52;12.15;;;10.18;;
13171;SDS011;6651;53.200;10.432;2022-08-19T03:27:18;11.85;;;10.23;;
13171;SDS011;6651;53.200;10.432;2022-08-19T03:29:44;12.57;;;10.45;;
13171;SDS011;6651;53.200;10.432;2022-08-19T03:32:10;11.70;;;10.43;;
13171;SDS011;6651;53.200;10.432;2022-08-19T03:34:37;11.70;;;9.75;;
13171;SDS011;6651;53.200;10.432;2022-08-19T03:37:08;13.10;;;10.80;;
13171;SDS011;6651;53.200;10.432;2022-08-19T03:39:35;14.70;;;11.88;;
13171;SDS011;6651;53.200;10.432;2022-08-19T03:42:02;11.45;;;10.25;;
13171;SDS011;6651;53.200;10.432;2022-08-19T03:44:28;12.20;;;11.00;;
13171;SDS011;6651;53.200;10.432;2022-08-19T03:46:56;13.95;;;12.50;;
13171;SDS011;6651;53.200;10.432;2022-08-19T03:49:24;11.07;;;9.93;;
13171;SDS011;6651;53.200;10.432;2022-08-19T03:51:52;12.35;;;10.95;;
13171;SDS011;6651;53.200;10.432;2022-08-19T03:54:19;10.90;;;9.80;;
13171;SDS011;6651;53.200;10.432;2022-08-19T03:56:48;14.30;;;11.63;;
13171;SDS011;6651;53.200;10.432;2022-08-19T03:59:20;13.68;;;11.95;;
13171;SDS011;6651;53.200;10.432;2022-08-19T04:01:51;12.93;;;10.95;;
13171;SDS011;6651;53.200;10.432;2022-08-19T04:04:18;12.82;;;11.20;;
13171;SDS011;6651;53.200;10.432;2022-08-19T04:06:44;12.48;;;10.85;;
13171;SDS011;6651;53.200;10.432;2022-08-19T04:09:12;12.35;;;10.18;;
13171;SDS011;6651;53.200;10.432;2022-08-19T04:11:42;13.65;;;11.32;;
13171;SDS011;6651;53.200;10.432;2022-08-19T04:14:10;12.35;;;10.15;;
13171;SDS011;6651;53.200;10.432;2022-08-19T04:16:37;11.40;;;10.02;;
13171;SDS011;6651;53.200;10.432;2022-08-19T04:19:03;15.13;;;10.45;;
13171;SDS011;6651;53.200;10.432;2022-08-19T04:21:30;13.70;;;11.00;;
13171;SDS011;6651;53.200;10.432;2022-08-19T04:23:56;13.73;;;10.68;;
13171;SDS011;6651;53.200;10.432;2022-08-19T04:26:26;11.07;;;9.98;;
13171;SDS011;6651;53.200;10.432;2022-08-19T04:28:57;11.57;;;10.25;;
13171;SDS011;6651;53.200;10.432;2022-08-19T04:31:25;14.13;;;10.23;;
13171;SDS011;6651;53.200;10.432;2022-08-19T04:33:53;14.18;;;10.23;;
13171;SDS011;6651;53.200;10.432;2022-08-19T04:36:22;13.18;;;11.50;;
13171;SDS011;6651;53.200;10.432;2022-08-19T04:38:50;13.23;;;9.57;;
13171;SDS011;6651;53.200;10.432;2022-08-19T04:41:19;12.10;;;9.98;;
13171;SDS011;6651;53.200;10.432;2022-08-19T04:44:03;14.07;;;11.02;;
13171;SDS011;6651;53.200;10.432;2022-08-19T04:46:29;12.68;;;10.13;;
13171;SDS011;6651;53.200;10.432;2022-08-19T04:48:56;11.27;;;9.30;;
13171;SDS011;6651;53.200;10.432;2022-08-19T04:51:23;12.45;;;10.35;;
13171;SDS011;6651;53.200;10.432;2022-08-19T04:53:50;14.35;;;11.40;;
13171;SDS011;6651;53.200;10.432;2022-08-19T04:56:17;13.15;;;10.77;;
13171;SDS011;6651;53.200;10.432;2022-08-19T04:58:47;11.95;;;10.10;;
13171;SDS011;6651;53.200;10.432;2022-08-19T05:01:16;14.80;;;11.80;;
13171;SDS011;6651;53.200;10.432;2022-08-19T05:03:44;15.63;;;12.00;;
13171;SDS011;6651;53.200;10.432;2022-08-19T05:06:11;14.00;;;12.20;;
13171;SDS011;6651;53.200;10.432;2022-08-19T05:08:39;15.05;;;12.50;;
13171;SDS011;6651;53.200;10.432;2022-08-19T05:11:09;14.95;;;12.18;;
13171;SDS011;6651;53.200;10.432;2022-08-19T05:13:36;14.60;;;11.73;;
13171;SDS011;6651;53.200;10.432;2022-08-19T05:16:02;18.58;;;12.77;;
13171;SDS011;6651;53.200;10.432;2022-08-19T05:18:27;18.35;;;14.32;;
13171;SDS011;6651;53.200;10.432;2022-08-19T05:21:12;14.48;;;12.43;;
13171;SDS011;6651;53.200;10.432;2022-08-19T05:24:01;16.30;;;12.75;;
13171;SDS011;6651;53.200;10.432;2022-08-19T05:26:27;15.65;;;12.27;;
13171;SDS011;6651;53.200;10.432;2022-08-19T05:28:53;16.00;;;12.23;;
13171;SDS011;6651;53.200;10.432;2022-08-19T05:31:19;15.55;;;11.90;;
13171;SDS011;6651;53.200;10.432;2022-08-19T05:33:46;16.77;;;12.43;;
13171;SDS011;6651;53.200;10.432;2022-08-19T05:36:12;15.02;;;11.93;;
13171;SDS011;6651;53.200;10.432;2022-08-19T05:38:39;15.85;;;13.13;;
13171;SDS011;6651;53.200;10.432;2022-08-19T05:41:08;15.88;;;11.98;;
13171;SDS011;6651;53.200;10.432;2022-08-19T05:43:36;15.15;;;11.65;;
13171;SDS011;6651;53.200;10.432;2022-08-19T05:46:02;18.05;;;13.05;;
13171;SDS011;6651;53.200;10.432;2022-08-19T05:48:30;18.55;;;13.60;;
13171;SDS011;6651;53.200;10.432;2022-08-19T05:50:57;17.45;;;13.32;;
13171;SDS011;6651;53.200;10.432;2022-08-19T05:53:24;18.40;;;13.13;;
13171;SDS011;6651;53.200;10.432;2022-08-19T05:55:50;14.82;;;12.90;;
13171;SDS011;6651;53.200;10.432;2022-08-19T05:58:16;21.38;;;14.00;;
13171;SDS011;6651;53.200;10.432;2022-08-19T06:00:42;16.85;;;13.60;;
13171;SDS011;6651;53.200;10.432;2022-08-19T06:03:09;19.50;;;13.93;;
13171;SDS011;6651;53.200;10.432;2022-08-19T06:05:35;20.05;;;14.98;;
13171;SDS011;6651;53.200;10.432;2022-08-19T06:08:00;21.30;;;14.75;;
13171;SDS011;6651;53.200;10.432;2022-08-19T06:10:26;19.63;;;16.00;;
13171;SDS011;6651;53.200;10.432;2022-08-19T06:12:52;24.40;;;16.35;;
13171;SDS011;6651;53.200;10.432;2022-08-19T06:15:19;20.77;;;16.23;;
13171;SDS011;6651;53.200;10.432;2022-08-19T06:17:46;20.80;;;15.68;;
13171;SDS011;6651;53.200;10.432;2022-08-19T06:20:13;22.42;;;16.25;;
13171;SDS011;6651;53.200;10.432;2022-08-19T06:22:43;24.90;;;19.40;;
13171;SDS011;6651;53.200;10.432;2022-08-19T06:25:11;25.70;;;18.42;;
13171;SDS011;6651;53.200;10.432;2022-08-19T06:27:38;28.73;;;18.08;;
13171;SDS011;6651;53.200;10.432;2022-08-19T06:30:05;24.95;;;19.15;;
13171;SDS011;6651;53.200;10.432;2022-08-19T06:32:31;23.92;;;18.65;;
13171;SDS011;6651;53.200;10.432;2022-08-19T06:34:56;26.02;;;20.83;;
13171;SDS011;6651;53.200;10.432;2022-08-19T06:37:22;27.27;;;21.17;;
13171;SDS011;6651;53.200;10.432;2022-08-19T06:39:48;29.55;;;22.40;;
13171;SDS011;6651;53.200;10.432;2022-08-19T06:42:14;27.30;;;20.88;;
13171;SDS011;6651;53.200;10.432;2022-08-19T06:44:43;31.02;;;22.52;;
13171;SDS011;6651;53.200;10.432;2022-08-19T06:47:13;29.52;;;23.08;;
13171;SDS011;6651;53.200;10.432;2022-08-19T06:49:41;32.97;;;27.35;;
13171;SDS011;6651;53.200;10.432;2022-08-19T06:52:08;32.40;;;25.73;;
13171;SDS011;6651;53.200;10.432;2022-08-19T06:54:37;30.85;;;24.05;;
13171;SDS011;6651;53.200;10.432;2022-08-19T06:57:03;29.65;;;24.70;;
13171;SDS011;6651;53.200;10.432;2022-08-19T06:59:29;31.58;;;27.08;;
13171;SDS011;6651;53.200;10.432;2022-08-19T07:01:57;32.70;;;26.45;;
13171;SDS011;6651;53.200;10.432;2022-08-19T07:04:27;35.88;;;26.60;;
13171;SDS011;6651;53.200;10.432;2022-08-19T07:06:59;32.33;;;27.13;;
13171;SDS011;6651;53.200;10.432;2022-08-19T07:09:27;29.52;;;25.05;;
13171;SDS011;6651;53.200;10.432;2022-08-19T07:11:54;33.05;;;26.77;;
13171;SDS011;6651;53.200;10.432;2022-08-19T07:14:22;31.13;;;25.67;;
13171;SDS011;6651;53.200;10.432;2022-08-19T07:16:50;30.17;;;25.40;;
13171;SDS011;6651;53.200;10.432;2022-08-19T07:19:18;32.20;;;26.90;;
13171;SDS011;6651;53.200;10.432;2022-08-19T07:21:45;32.30;;;26.70;;
13171;SDS011;6651;53.200;10.432;2022-08-19T07:24:11;35.00;;;26.40;;
13171;SDS011;6651;53.200;10.432;2022-08-19T07:26:38;28.00;;;25.13;;
13171;SDS011;6651;53.200;10.432;2022-08-19T07:29:06;29.52;;;25.52;;
13171;SDS011;6651;53.200;10.432;2022-08-19T07:31:33;28.30;;;25.08;;
13171;SDS011;6651;53.200;10.432;2022-08-19T07:34:02;29.67;;;25.92;;
13171;SDS011;6651;53.200;10.432;2022-08-19T07:36:34;28.05;;;25.05;;
13171;SDS011;6651;53.200;10.432;2022-08-19T07:39:03;30.67;;;26.55;;
13171;SDS011;6651;53.200;10.432;2022-08-19T07:41:32;30.83;;;26.83;;
13171;SDS011;6651;53.200;10.432;2022-08-19T07:44:00;27.90;;;24.33;;
13171;SDS011;6651;53.200;10.432;2022-08-19T07:46:29;32.53;;;27.33;;
13171;SDS011;6651;53.200;10.432;2022-08-19T07:48:56;34.92;;;29.00;;
13171;SDS011;6651;53.200;10.432;2022-08-19T07:51:22;35.80;;;29.58;;
13171;SDS011;6651;53.200;10.432;2022-08-19T07:53:48;38.78;;;31.33;;
13171;SDS011;6651;53.200;10.432;2022-08-19T07:56:16;34.92;;;30.40;;
13171;SDS011;6651;53.200;10.432;2022-08-19T07:58:44;38.80;;;30.80;;
13171;SDS011;6651;53.200;10.432;2022-08-19T08:01:25;39.10;;;32.70;;
13171;SDS011;6651;53.200;10.432;2022-08-19T08:03:53;41.20;;;32.65;;
13171;SDS011;6651;53.200;10.432;2022-08-19T08:06:39;40.35;;;33.03;;
13171;SDS011;6651;53.200;10.432;2022-08-19T08:09:25;37.53;;;31.20;;
13171;SDS011;6651;53.200;10.432;2022-08-19T08:12:04;42.50;;;32.13;;
13171;SDS011;6651;53.200;10.432;2022-08-19T08:15:00;40.58;;;33.67;;
13171;SDS011;6651;53.200;10.432;2022-08-19T08:17:29;39.70;;;32.40;;
13171;SDS011;6651;53.200;10.432;2022-08-19T08:19:56;44.80;;;34.97;;
13171;SDS011;6651;53.200;10.432;2022-08-19T08:22:22;45.20;;;33.55;;
13171;SDS011;6651;53.200;10.432;2022-08-19T08:25:12;48.70;;;37.08;;
13171;SDS011;6651;53.200;10.432;2022-08-19T08:27:42;47.95;;;36.08;;
13171;SDS011;6651;53.200;10.432;2022-08-19T08:30:14;44.33;;;35.00;;
13171;SDS011;6651;53.200;10.432;2022-08-19T08:32:41;48.25;;;37.22;;
13171;SDS011;6651;53.200;10.432;2022-08-19T08:35:09;42.90;;;33.97;;
13171;SDS011;6651;53.200;10.432;2022-08-19T08:37:36;45.65;;;34.00;;
13171;SDS011;6651;53.200;10.432;2022-08-19T08:40:04;45.20;;;33.83;;
13171;SDS011;6651;53.200;10.432;2022-08-19T08:43:07;44.97;;;35.10;;
13171;SDS011;6651;53.200;10.432;2022-08-19T08:45:53;45.80;;;35.03;;
13171;SDS011;6651;53.200;10.432;2022-08-19T08:48:42;44.75;;;33.58;;
13171;SDS011;6651;53.200;10.432;2022-08-19T08:51:16;42.70;;;32.85;;
13171;SDS011;6651;53.200;10.432;2022-08-19T08:53:47;45.90;;;34.33;;
13171;SDS011;6651;53.200;10.432;2022-08-19T08:56:16;44.35;;;32.63;;
13171;SDS011;6651;53.200;10.432;2022-08-19T08:58:54;42.50;;;32.03;;
13171;SDS011;6651;53.200;10.432;2022-08-19T09:01:42;42.08;;;31.88;;
13171;SDS011;6651;53.200;10.432;2022-08-19T09:04:08;43.63;;;31.58;;
13171;SDS011;6651;53.200;10.432;2022-08-19T09:06:58;34.70;;;29.48;;
13171;SDS011;6651;53.200;10.432;2022-08-19T09:09:42;41.20;;;31.50;;
13171;SDS011;6651;53.200;10.432;2022-08-19T09:15:09;39.90;;;30.92;;
13171;SDS011;6651;53.200;10.432;2022-08-19T09:17:37;39.15;;;30.50;;
13171;SDS011;6651;53.200;10.432;2022-08-19T09:20:06;38.63;;;29.75;;
13171;SDS011;6651;53.200;10.432;2022-08-19T09:22:39;43.60;;;32.40;;
13171;SDS011;6651;53.200;10.432;2022-08-19T09:25:09;42.53;;;29.73;;
13171;SDS011;6651;53.200;10.432;2022-08-19T09:27:37;38.05;;;29.17;;
13171;SDS011;6651;53.200;10.432;2022-08-19T09:30:05;40.78;;;29.38;;
13171;SDS011;6651;53.200;10.432;2022-08-19T09:32:32;38.15;;;29.10;;
13171;SDS011;6651;53.200;10.432;2022-08-19T09:34:58;34.28;;;27.38;;
13171;SDS011;6651;53.200;10.432;2022-08-19T09:37:25;34.78;;;26.83;;
13171;SDS011;6651;53.200;10.432;2022-08-19T09:39:51;32.72;;;25.65;;
13171;SDS011;6651;53.200;10.432;2022-08-19T09:42:17;39.72;;;27.95;;
13171;SDS011;6651;53.200;10.432;2022-08-19T09:44:43;34.90;;;26.27;;
13171;SDS011;6651;53.200;10.432;2022-08-19T09:47:10;33.97;;;26.60;;
13171;SDS011;6651;53.200;10.432;2022-08-19T09:49:37;34.05;;;27.00;;
13171;SDS011;6651;53.200;10.432;2022-08-19T09:52:04;35.63;;;26.95;;
13171;SDS011;6651;53.200;10.432;2022-08-19T09:54:32;32.85;;;25.00;;
13171;SDS011;6651;53.200;10.432;2022-08-19T09:56:58;35.83;;;26.90;;
13171;SDS011;6651;53.200;10.432;2022-08-19T09:59:27;32.28;;;23.65;;
13171;SDS011;6651;53.200;10.432;2022-08-19T10:01:53;34.03;;;25.67;;
13171;SDS011;6651;53.200;10.432;2022-08-19T10:04:19;30.67;;;23.90;;
13171;SDS011;6651;53.200;10.432;2022-08-19T10:06:46;31.30;;;23.58;;
13171;SDS011;6651;53.200;10.432;2022-08-19T10:09:14;29.15;;;23.52;;
13171;SDS011;6651;53.200;10.432;2022-08-19T10:11:43;34.75;;;26.45;;
13171;SDS011;6651;53.200;10.432;2022-08-19T10:14:14;32.92;;;24.60;;
13171;SDS011;6651;53.200;10.432;2022-08-19T10:16:41;35.42;;;26.70;;
13171;SDS011;6651;53.200;10.432;2022-08-19T10:19:07;30.63;;;23.98;;
13171;SDS011;6651;53.200;10.432;2022-08-19T10:21:34;34.30;;;24.70;;
13171;SDS011;6651;53.200;10.432;2022-08-19T10:24:01;37.83;;;25.52;;
13171;SDS011;6651;53.200;10.432;2022-08-19T10:26:30;33.72;;;25.25;;
13171;SDS011;6651;53.200;10.432;2022-08-19T10:28:58;31.55;;;23.48;;
13171;SDS011;6651;53.200;10.432;2022-08-19T10:31:29;27.08;;;22.20;;
13171;SDS011;6651;53.200;10.432;2022-08-19T10:33:56;32.88;;;24.05;;
13171;SDS011;6651;53.200;10.432;2022-08-19T10:36:24;32.60;;;24.17;;
13171;SDS011;6651;53.200;10.432;2022-08-19T10:38:56;34.17;;;24.25;;
13171;SDS011;6651;53.200;10.432;2022-08-19T10:41:25;31.58;;;24.08;;
13171;SDS011;6651;53.200;10.432;2022-08-19T10:43:53;31.98;;;24.60;;
13171;SDS011;6651;53.200;10.432;2022-08-19T10:46:21;31.27;;;23.17;;
13171;SDS011;6651;53.200;10.432;2022-08-19T10:48:48;29.27;;;22.35;;
13171;SDS011;6651;53.200;10.432;2022-08-19T10:51:15;32.47;;;26.20;;
13171;SDS011;6651;53.200;10.432;2022-08-19T10:53:59;35.10;;;26.80;;
13171;SDS011;6651;53.200;10.432;2022-08-19T10:56:26;34.60;;;27.42;;
13171;SDS011;6651;53.200;10.432;2022-08-19T10:59:11;31.13;;;23.98;;
13171;SDS011;6651;53.200;10.432;2022-08-19T11:01:39;32.55;;;25.05;;
13171;SDS011;6651;53.200;10.432;2022-08-19T11:04:05;36.05;;;26.95;;
13171;SDS011;6651;53.200;10.432;2022-08-19T11:06:35;38.78;;;27.33;;
13171;SDS011;6651;53.200;10.432;2022-08-19T11:09:01;36.05;;;26.55;;
13171;SDS011;6651;53.200;10.432;2022-08-19T11:11:28;35.80;;;27.50;;
13171;SDS011;6651;53.200;10.432;2022-08-19T11:13:53;34.22;;;26.40;;
13171;SDS011;6651;53.200;10.432;2022-08-19T11:16:20;33.75;;;26.23;;
13171;SDS011;6651;53.200;10.432;2022-08-19T11:18:49;35.00;;;26.23;;
13171;SDS011;6651;53.200;10.432;2022-08-19T11:21:21;36.65;;;27.48;;
13171;SDS011;6651;53.200;10.432;2022-08-19T11:23:53;36.50;;;28.58;;
13171;SDS011;6651;53.200;10.432;2022-08-19T11:26:21;31.88;;;26.80;;
13171;SDS011;6651;53.200;10.432;2022-08-19T11:28:47;36.28;;;26.92;;
13171;SDS011;6651;53.200;10.432;2022-08-19T11:31:17;34.55;;;27.80;;
13171;SDS011;6651;53.200;10.432;2022-08-19T11:33:45;37.75;;;29.75;;
13171;SDS011;6651;53.200;10.432;2022-08-19T11:36:12;35.17;;;27.58;;
13171;SDS011;6651;53.200;10.432;2022-08-19T11:38:38;37.20;;;27.75;;
13171;SDS011;6651;53.200;10.432;2022-08-19T11:41:05;34.25;;;26.63;;
13171;SDS011;6651;53.200;10.432;2022-08-19T11:43:32;38.28;;;28.50;;
13171;SDS011;6651;53.200;10.432;2022-08-19T11:45:59;35.55;;;29.15;;
13171;SDS011;6651;53.200;10.432;2022-08-19T11:48:28;32.67;;;26.27;;
13171;SDS011;6651;53.200;10.432;2022-08-19T11:50:53;32.28;;;26.05;;
13171;SDS011;6651;53.200;10.432;2022-08-19T11:53:23;34.63;;;27.23;;
13171;SDS011;6651;53.200;10.432;2022-08-19T11:55:49;30.98;;;24.73;;
13171;SDS011;6651;53.200;10.432;2022-08-19T11:58:15;31.20;;;23.85;;
13171;SDS011;6651;53.200;10.432;2022-08-19T12:00:42;30.20;;;24.02;;
13171;SDS011;6651;53.200;10.432;2022-08-19T12:03:10;33.08;;;25.63;;
13171;SDS011;6651;53.200;10.432;2022-08-19T12:05:38;36.00;;;30.58;;
13171;SDS011;6651;53.200;10.432;2022-08-19T12:08:05;44.50;;;36.70;;
13171;SDS011;6651;53.200;10.432;2022-08-19T12:10:32;46.13;;;36.78;;
13171;SDS011;6651;53.200;10.432;2022-08-19T12:12:58;49.22;;;40.30;;
13171;SDS011;6651;53.200;10.432;2022-08-19T12:15:24;48.22;;;39.30;;
13171;SDS011;6651;53.200;10.432;2022-08-19T12:17:52;44.85;;;38.10;;
13171;SDS011;6651;53.200;10.432;2022-08-19T12:20:21;44.47;;;38.00;;
13171;SDS011;6651;53.200;10.432;2022-08-19T12:22:48;40.75;;;35.13;;
13171;SDS011;6651;53.200;10.432;2022-08-19T12:25:14;41.30;;;36.20;;
13171;SDS011;6651;53.200;10.432;2022-08-19T12:27:39;40.15;;;35.35;;
13171;SDS011;6651;53.200;10.432;2022-08-19T12:30:06;39.08;;;33.47;;
13171;SDS011;6651;53.200;10.432;2022-08-19T12:32:34;38.85;;;32.42;;
13171;SDS011;6651;53.200;10.432;2022-08-19T12:35:00;36.28;;;32.17;;
13171;SDS011;6651;53.200;10.432;2022-08-19T12:37:26;35.60;;;31.60;;
13171;SDS011;6651;53.200;10.432;2022-08-19T12:39:51;34.88;;;31.17;;
13171;SDS011;6651;53.200;10.432;2022-08-19T12:42:17;36.92;;;32.97;;
13171;SDS011;6651;53.200;10.432;2022-08-19T12:44:43;34.08;;;30.58;;
13171;SDS011;6651;53.200;10.432;2022-08-19T12:47:10;37.05;;;33.13;;
13171;SDS011;6651;53.200;10.432;2022-08-19T12:49:38;35.38;;;31.77;;
13171;SDS011;6651;53.200;10.432;2022-08-19T12:52:06;38.03;;;34.28;;
13171;SDS011;6651;53.200;10.432;2022-08-19T12:54:33;34.65;;;31.13;;
13171;SDS011;6651;53.200;10.432;2022-08-19T12:57:00;37.50;;;33.72;;
13171;SDS011;6651;53.200;10.432;2022-08-19T12:59:32;34.42;;;30.77;;
13171;SDS011;6651;53.200;10.432;2022-08-19T13:01:58;36.78;;;33.20;;
13171;SDS011;6651;53.200;10.432;2022-08-19T13:04:24;39.70;;;35.78;;
13171;SDS011;6651;53.200;10.432;2022-08-19T13:06:49;38.83;;;35.08;;
13171;SDS011;6651;53.200;10.432;2022-08-19T13:09:15;36.53;;;33.13;;
13171;SDS011;6651;53.200;10.432;2022-08-19T13:11:41;36.70;;;33.08;;
13171;SDS011;6651;53.200;10.432;2022-08-19T13:14:08;37.95;;;34.25;;
13171;SDS011;6651;53.200;10.432;2022-08-19T13:16:33;38.85;;;35.13;;
13171;SDS011;6651;53.200;10.432;2022-08-19T13:19:00;39.08;;;35.10;;
13171;SDS011;6651;53.200;10.432;2022-08-19T13:21:29;35.42;;;32.05;;
13171;SDS011;6651;53.200;10.432;2022-08-19T13:23:55;34.88;;;31.63;;
13171;SDS011;6651;53.200;10.432;2022-08-19T13:26:22;36.95;;;33.65;;
13171;SDS011;6651;53.200;10.432;2022-08-19T13:28:48;36.35;;;32.92;;
13171;SDS011;6651;53.200;10.432;2022-08-19T13:31:33;37.25;;;33.63;;
13171;SDS011;6651;53.200;10.432;2022-08-19T13:34:25;34.60;;;31.50;;
13171;SDS011;6651;53.200;10.432;2022-08-19T13:36:58;35.10;;;31.73;;
13171;SDS011;6651;53.200;10.432;2022-08-19T13:39:25;34.22;;;31.05;;
13171;SDS011;6651;53.200;10.432;2022-08-19T13:41:50;34.85;;;31.58;;
13171;SDS011;6651;53.200;10.432;2022-08-19T13:44:17;37.92;;;33.95;;
13171;SDS011;6651;53.200;10.432;2022-08-19T13:46:44;36.28;;;32.97;;
13171;SDS011;6651;53.200;10.432;2022-08-19T13:49:11;35.90;;;32.30;;
13171;SDS011;6651;53.200;10.432;2022-08-19T13:51:41;31.38;;;28.38;;
13171;SDS011;6651;53.200;10.432;2022-08-19T13:54:09;32.80;;;29.70;;
13171;SDS011;6651;53.200;10.432;2022-08-19T13:56:39;31.98;;;28.88;;
13171;SDS011;6651;53.200;10.432;2022-08-19T13:59:10;32.67;;;29.63;;
13171;SDS011;6651;53.200;10.432;2022-08-19T14:01:36;28.90;;;26.20;;
13171;SDS011;6651;53.200;10.432;2022-08-19T14:04:03;32.00;;;29.00;;
13171;SDS011;6651;53.200;10.432;2022-08-19T14:06:30;29.38;;;26.75;;
13171;SDS011;6651;53.200;10.432;2022-08-19T14:08:55;31.00;;;28.00;;
13171;SDS011;6651;53.200;10.432;2022-08-19T14:11:21;29.60;;;26.90;;
13171;SDS011;6651;53.200;10.432;2022-08-19T14:13:48;32.17;;;29.17;;
13171;SDS011;6651;53.200;10.432;2022-08-19T14:16:14;30.50;;;27.55;;
13171;SDS011;6651;53.200;10.432;2022-08-19T14:18:40;27.55;;;25.02;;
13171;SDS011;6651;53.200;10.432;2022-08-19T14:21:07;26.15;;;23.85;;
13171;SDS011;6651;53.200;10.432;2022-08-19T14:23:38;24.85;;;22.48;;
13171;SDS011;6651;53.200;10.432;2022-08-19T14:26:06;28.33;;;25.67;;
13171;SDS011;6651;53.200;10.432;2022-08-19T14:28:34;25.80;;;23.45;;
13171;SDS011;6651;53.200;10.432;2022-08-19T14:30:59;20.90;;;19.00;;
13171;SDS011;6651;53.200;10.432;2022-08-19T14:33:25;26.75;;;24.45;;
13171;SDS011;6651;53.200;10.432;2022-08-19T14:35:51;27.77;;;25.33;;